Time;durP1;ratioP1;P1;durP2;ratioP2;P2;SDS_P1;SDS_P2;PMS_P1;PMS_P2;Temp;Humidity;BMP_temperature;BMP_pressure;BME280_temperature;BME280_humidity;BME280_pressure;Samples;Min_cycle;Max_cycle;Signal;HPM_P1;HPM_P2
2021/04/15 00:01:10;;;;;;;9.35;7.85;;;11.30;47.10;;;;;;5050384;28;20029;-57
2021/04/15 00:03:36;;;;;;;8.60;7.43;;;11.30;46.20;;;;;;5049919;28;20111;-57
2021/04/15 00:06:09;;;;;;;7.97;7.13;;;11.20;46.10;;;;;;5050883;28;20036;-57
2021/04/15 00:08:34;;;;;;;7.93;7.20;;;11.20;45.90;;;;;;5049178;28;20398;-57
2021/04/15 00:11:01;;;;;;;7.40;6.60;;;11.10;45.80;;;;;;5051743;28;20040;-57
2021/04/15 00:13:42;;;;;;;8.23;7.15;;;11.20;45.70;;;;;;5063954;28;20435;-56
2021/04/15 00:16:08;;;;;;;7.60;6.90;;;11.30;45.40;;;;;;5033840;28;20060;-57
2021/04/15 00:18:34;;;;;;;8.63;6.90;;;11.30;45.30;;;;;;5054679;28;20047;-56
2021/04/15 00:21:00;;;;;;;7.17;6.50;;;11.30;45.10;;;;;;5051189;28;20041;-56
2021/04/15 00:23:26;;;;;;;8.90;7.00;;;11.30;44.80;;;;;;5058886;28;20173;-55
2021/04/15 00:25:52;;;;;;;9.85;6.95;;;11.20;44.80;;;;;;5053179;28;20141;-57
2021/04/15 00:28:18;;;;;;;6.78;6.15;;;11.10;44.90;;;;;;5047187;28;20123;-58
2021/04/15 00:30:44;;;;;;;7.80;7.00;;;11.20;44.50;;;;;;5057575;28;20512;-56
2021/04/15 00:33:11;;;;;;;7.40;6.70;;;11.30;44.40;;;;;;5044960;28;20049;-56
2021/04/15 00:35:39;;;;;;;7.50;6.13;;;11.20;43.90;;;;;;5050283;28;20151;-58
2021/04/15 00:38:05;;;;;;;7.85;6.82;;;11.20;44.10;;;;;;5043771;28;20174;-57
2021/04/15 00:40:32;;;;;;;7.67;6.60;;;11.20;43.80;;;;;;5034797;28;20060;-55
2021/04/15 00:42:58;;;;;;;7.63;6.53;;;11.20;44.00;;;;;;5050054;28;20033;-53
2021/04/15 00:45:28;;;;;;;7.30;6.40;;;11.20;43.20;;;;;;5039251;28;20174;-57
2021/04/15 00:48:06;;;;;;;7.30;6.60;;;11.30;43.50;;;;;;5046640;28;22324;-58
2021/04/15 00:50:52;;;;;;;7.87;6.50;;;11.10;42.90;;;;;;5060242;28;20040;-56
2021/04/15 00:53:24;;;;;;;6.97;6.27;;;11.10;43.60;;;;;;5057309;28;20517;-57
2021/04/15 00:55:50;;;;;;;8.20;6.67;;;11.30;43.50;;;;;;5050685;28;20047;-55
2021/04/15 00:58:16;;;;;;;7.87;6.67;;;11.30;43.10;;;;;;5053959;28;20398;-56
2021/04/15 01:00:42;;;;;;;7.43;5.63;;;11.10;42.60;;;;;;5058370;28;20032;-55
2021/04/15 01:03:08;;;;;;;8.48;6.53;;;11.30;42.60;;;;;;5050787;28;20045;-56
2021/04/15 01:05:43;;;;;;;7.17;6.40;;;11.30;42.80;;;;;;5044623;28;20063;-57
2021/04/15 01:08:09;;;;;;;6.83;6.13;;;11.30;42.80;;;;;;5050251;28;20033;-55
2021/04/15 01:10:39;;;;;;;7.15;6.43;;;11.20;42.60;;;;;;5050682;28;20033;-52
2021/04/15 01:13:19;;;;;;;7.30;6.50;;;11.10;42.70;;;;;;5051516;28;20049;-55
2021/04/15 01:15:51;;;;;;;8.40;7.50;;;11.20;42.90;;;;;;5046357;28;20033;-57
2021/04/15 01:18:42;;;;;;;6.85;6.18;;;11.20;42.80;;;;;;5052720;28;20048;-57
2021/04/15 01:21:45;;;;;;;7.23;6.53;;;11.10;43.30;;;;;;5005041;28;20040;-55
2021/04/15 01:24:20;;;;;;;8.35;7.07;;;11.00;43.40;;;;;;5021523;28;20037;-56
2021/04/15 01:27:04;;;;;;;7.07;6.33;;;10.80;43.30;;;;;;5051475;28;20037;-57
2021/04/15 01:29:52;;;;;;;9.70;6.80;;;10.90;43.50;;;;;;5038951;28;20034;-57
2021/04/15 01:32:25;;;;;;;7.20;6.40;;;10.90;43.90;;;;;;5043474;28;20048;-57
2021/04/15 01:34:54;;;;;;;8.10;6.40;;;11.00;43.70;;;;;;5052622;28;20045;-57
2021/04/15 01:37:42;;;;;;;7.43;6.40;;;10.90;44.10;;;;;;5049334;28;20047;-56
2021/04/15 01:40:25;;;;;;;8.43;6.83;;;11.00;44.30;;;;;;5022328;28;20029;-59
2021/04/15 01:43:10;;;;;;;6.57;5.97;;;11.00;44.10;;;;;;5054380;28;20086;-56
2021/04/15 01:45:36;;;;;;;6.53;5.93;;;11.00;44.10;;;;;;5030029;28;20064;-57
2021/04/15 01:48:06;;;;;;;9.43;7.10;;;11.00;44.20;;;;;;5058118;28;20064;-57
2021/04/15 01:50:40;;;;;;;7.40;6.60;;;10.80;44.10;;;;;;5037335;28;20464;-54
2021/04/15 01:53:21;;;;;;;9.27;7.07;;;11.00;44.40;;;;;;5068162;28;20117;-56
2021/04/15 01:55:55;;;;;;;6.80;6.10;;;10.90;44.20;;;;;;5056894;28;20524;-57
2021/04/15 01:58:34;;;;;;;7.13;6.05;;;10.90;43.50;;;;;;5050239;28;20068;-57
2021/04/15 02:01:09;;;;;;;7.67;6.63;;;10.80;43.80;;;;;;5050371;28;20497;-55
2021/04/15 02:03:37;;;;;;;7.37;6.40;;;10.80;43.90;;;;;;5057133;28;20051;-57
2021/04/15 02:06:08;;;;;;;9.03;6.70;;;11.00;43.70;;;;;;5043085;28;20494;-57
2021/04/15 02:08:40;;;;;;;7.03;6.30;;;10.80;43.50;;;;;;5059090;28;20140;-57
2021/04/15 02:11:11;;;;;;;8.80;6.40;;;10.80;43.30;;;;;;5057514;28;20585;-56
2021/04/15 02:13:40;;;;;;;9.73;6.37;;;10.80;43.10;;;;;;5047246;28;20063;-56
2021/04/15 02:16:11;;;;;;;8.33;6.00;;;10.70;42.70;;;;;;5042340;28;20029;-55
2021/04/15 02:18:52;;;;;;;7.20;5.87;;;10.60;42.50;;;;;;5056490;28;20036;-54
2021/04/15 02:21:25;;;;;;;7.67;5.80;;;10.70;42.30;;;;;;5052128;28;20135;-56
2021/04/15 02:23:57;;;;;;;8.43;5.77;;;10.70;42.80;;;;;;5062538;28;20045;-57
2021/04/15 02:26:31;;;;;;;6.97;6.27;;;10.80;42.70;;;;;;5047564;28;20087;-55
2021/04/15 02:29:05;;;;;;;6.10;5.50;;;10.70;42.40;;;;;;5066371;28;20033;-56
2021/04/15 02:31:44;;;;;;;8.80;6.20;;;10.80;42.00;;;;;;5049871;28;20075;-56
2021/04/15 02:34:18;;;;;;;7.30;5.27;;;10.70;41.80;;;;;;5060841;28;20386;-54
2021/04/15 02:36:57;;;;;;;6.60;5.97;;;10.80;42.30;;;;;;5040856;28;20045;-55
2021/04/15 02:39:35;;;;;;;7.20;5.87;;;10.80;41.90;;;;;;5045912;28;20037;-56
2021/04/15 02:42:04;;;;;;;6.03;5.37;;;10.80;41.30;;;;;;5045731;28;20028;-58
2021/04/15 02:44:37;;;;;;;6.47;5.27;;;10.80;42.10;;;;;;5065293;28;20040;-56
2021/04/15 02:47:09;;;;;;;6.17;5.30;;;11.00;41.60;;;;;;5051054;28;20505;-56
2021/04/15 02:49:35;;;;;;;5.23;4.40;;;10.80;41.00;;;;;;5047754;28;20059;-56
2021/04/15 02:52:06;;;;;;;5.23;4.60;;;10.90;41.40;;;;;;5053096;28;20053;-55
2021/04/15 02:54:43;;;;;;;6.10;5.50;;;10.90;41.50;;;;;;5048114;28;20032;-55
2021/04/15 02:57:14;;;;;;;8.30;5.70;;;10.90;41.00;;;;;;5060973;28;20040;-53
2021/04/15 02:59:54;;;;;;;7.27;5.20;;;10.90;41.20;;;;;;5026408;28;20045;-55
2021/04/15 03:02:31;;;;;;;5.70;5.03;;;10.90;41.50;;;;;;5047653;28;20092;-56
2021/04/15 03:05:15;;;;;;;5.97;4.83;;;10.70;41.00;;;;;;5047072;28;20082;-55
2021/04/15 03:07:43;;;;;;;6.20;5.60;;;10.80;41.50;;;;;;5013391;28;20044;-57
2021/04/15 03:10:15;;;;;;;5.82;5.32;;;10.70;41.90;;;;;;5044917;28;20029;-57
2021/04/15 03:12:52;;;;;;;5.63;4.63;;;10.70;41.30;;;;;;5051710;28;20448;-56
2021/04/15 03:15:28;;;;;;;6.17;5.17;;;10.60;41.30;;;;;;5039837;28;20438;-57
2021/04/15 03:18:04;;;;;;;6.53;5.37;;;10.50;42.00;;;;;;5051914;28;20099;-56
2021/04/15 03:20:42;;;;;;;6.20;4.87;;;10.40;41.40;;;;;;5042687;28;20033;-56
2021/04/15 03:23:15;;;;;;;5.67;5.17;;;10.50;42.10;;;;;;5031605;28;20044;-55
2021/04/15 03:25:41;;;;;;;5.93;5.33;;;10.40;42.00;;;;;;5049035;28;20490;-57
2021/04/15 03:28:14;;;;;;;6.23;5.20;;;10.50;42.10;;;;;;5056014;28;20079;-56
2021/04/15 03:30:45;;;;;;;6.03;4.40;;;10.40;42.00;;;;;;5045060;28;20464;-56
2021/04/15 03:33:29;;;;;;;7.47;5.37;;;10.50;42.30;;;;;;5065535;28;20040;-57
2021/04/15 03:36:15;;;;;;;5.50;4.80;;;10.50;42.10;;;;;;5046269;28;20620;-58
2021/04/15 03:39:09;;;;;;;7.43;5.40;;;10.40;41.90;;;;;;5026664;28;20041;-57
2021/04/15 03:41:44;;;;;;;5.90;4.60;;;10.30;42.80;;;;;;5030423;28;20402;-57
2021/04/15 03:44:18;;;;;;;6.13;5.40;;;10.40;42.50;;;;;;5050999;28;20443;-56
2021/04/15 03:47:05;;;;;;;5.22;4.72;;;10.10;43.00;;;;;;5050331;28;20045;-53
2021/04/15 03:49:35;;;;;;;5.77;4.70;;;10.20;43.60;;;;;;5062113;28;20033;-57
2021/04/15 03:52:32;;;;;;;5.50;4.93;;;10.40;42.80;;;;;;5054402;28;20061;-56
2021/04/15 03:55:23;;;;;;;7.23;5.40;;;10.40;43.40;;;;;;5064945;28;20036;-57
2021/04/15 03:57:53;;;;;;;6.07;5.03;;;10.30;43.70;;;;;;5032448;28;20044;-56
2021/04/15 04:00:47;;;;;;;5.63;5.03;;;10.30;43.10;;;;;;5048714;28;20033;-57
2021/04/15 04:03:23;;;;;;;8.73;5.60;;;10.40;43.60;;;;;;5042848;28;20040;-57
2021/04/15 04:06:00;;;;;;;6.53;5.25;;;10.30;43.70;;;;;;5048227;28;20060;-57
2021/04/15 04:08:43;;;;;;;5.43;4.90;;;10.20;43.40;;;;;;5050710;28;20402;-57
2021/04/15 04:11:13;;;;;;;6.70;5.43;;;10.30;43.50;;;;;;5022401;28;20072;-56
2021/04/15 04:13:46;;;;;;;6.47;5.00;;;10.10;43.50;;;;;;5049555;28;20122;-57
2021/04/15 04:16:26;;;;;;;6.37;5.30;;;10.10;44.40;;;;;;5056305;28;20665;-55
2021/04/15 04:19:17;;;;;;;6.83;5.27;;;10.10;44.50;;;;;;5032952;28;20040;-58
2021/04/15 04:21:51;;;;;;;6.30;4.87;;;10.20;44.20;;;;;;5022245;28;20033;-58
2021/04/15 04:24:45;;;;;;;5.72;5.00;;;10.20;44.00;;;;;;5059844;28;20497;-57
2021/04/15 04:27:22;;;;;;;7.30;5.67;;;10.10;44.50;;;;;;5020416;28;20045;-56
2021/04/15 04:30:06;;;;;;;6.47;5.43;;;9.90;45.10;;;;;;5052245;28;20044;-57
2021/04/15 04:32:33;;;;;;;5.87;5.20;;;9.90;45.20;;;;;;5047328;28;20360;-56
2021/04/15 04:35:00;;;;;;;5.77;5.13;;;10.00;45.20;;;;;;5053822;28;20482;-56
2021/04/15 04:37:32;;;;;;;6.07;5.30;;;10.00;45.00;;;;;;5048776;28;20041;-56
2021/04/15 04:40:00;;;;;;;7.07;4.77;;;10.00;45.70;;;;;;5049109;28;20056;-55
2021/04/15 04:42:39;;;;;;;6.70;5.03;;;9.90;45.10;;;;;;5054957;28;20387;-53
2021/04/15 04:45:08;;;;;;;7.90;5.47;;;9.90;45.40;;;;;;5064402;28;20135;-57
2021/04/15 04:48:04;;;;;;;6.10;5.50;;;9.80;45.40;;;;;;5058667;28;20143;-57
2021/04/15 04:50:40;;;;;;;6.43;5.37;;;9.90;45.90;;;;;;5042654;28;20470;-53
2021/04/15 04:53:21;;;;;;;7.10;5.40;;;9.80;45.50;;;;;;5027651;28;20064;-57
2021/04/15 04:56:08;;;;;;;7.17;4.87;;;9.90;45.60;;;;;;5042846;28;20041;-54
2021/04/15 04:58:36;;;;;;;7.30;5.57;;;9.90;45.60;;;;;;5046269;28;20052;-57
2021/04/15 05:01:02;;;;;;;5.60;4.47;;;9.90;45.60;;;;;;5057172;28;20037;-57
2021/04/15 05:03:30;;;;;;;7.13;4.97;;;10.00;45.50;;;;;;5044322;28;20056;-57
2021/04/15 05:06:07;;;;;;;6.43;5.57;;;10.00;45.70;;;;;;5053307;28;20033;-58
2021/04/15 05:09:11;;;;;;;6.17;5.07;;;9.90;45.90;;;;;;5054182;28;20037;-57
2021/04/15 05:11:43;;;;;;;7.13;5.27;;;10.00;46.00;;;;;;5037632;28;20054;-55
2021/04/15 05:14:10;;;;;;;6.40;4.77;;;10.00;46.00;;;;;;5046961;28;20076;-57
2021/04/15 05:16:47;;;;;;;5.67;5.10;;;10.10;45.60;;;;;;5066451;28;20055;-56
2021/04/15 05:19:13;;;;;;;10.47;5.47;;;10.10;45.80;;;;;;5049450;28;20041;-53
2021/04/15 05:21:41;;;;;;;9.57;5.33;;;10.00;45.90;;;;;;5061821;28;20040;-59
2021/04/15 05:24:22;;;;;;;5.40;4.90;;;10.10;45.70;;;;;;5052364;28;20044;-57
2021/04/15 05:26:50;;;;;;;8.53;5.63;;;10.10;45.70;;;;;;5065107;28;20114;-57
2021/04/15 05:29:20;;;;;;;5.77;5.17;;;10.00;46.10;;;;;;5055325;28;20025;-58
2021/04/15 05:31:47;;;;;;;11.87;5.20;;;10.10;45.90;;;;;;5057875;28;20059;-56
2021/04/15 05:34:35;;;;;;;6.57;5.13;;;10.10;45.90;;;;;;5042940;28;20463;-59
2021/04/15 05:37:07;;;;;;;8.07;5.63;;;10.10;46.40;;;;;;5046182;28;20037;-55
2021/04/15 05:39:35;;;;;;;8.43;5.40;;;10.20;46.20;;;;;;5040702;28;20068;-56
2021/04/15 05:42:04;;;;;;;8.73;5.63;;;10.20;46.20;;;;;;5043155;28;20085;-55
2021/04/15 05:44:44;;;;;;;6.87;5.53;;;10.20;46.30;;;;;;5059371;28;20045;-58
2021/04/15 05:47:26;;;;;;;6.90;5.37;;;10.20;46.30;;;;;;5013756;28;20518;-54
2021/04/15 05:49:57;;;;;;;7.37;5.37;;;10.30;46.50;;;;;;5043539;28;20532;-55
2021/04/15 05:52:31;;;;;;;7.67;5.50;;;10.30;46.40;;;;;;5054198;28;20399;-56
2021/04/15 05:55:11;;;;;;;6.25;5.22;;;10.20;46.60;;;;;;5058295;28;20415;-58
2021/04/15 05:57:40;;;;;;;7.17;5.63;;;10.30;46.60;;;;;;5024915;28;20398;-57
2021/04/15 06:00:23;;;;;;;8.73;5.47;;;10.30;46.30;;;;;;5045505;28;20097;-56
2021/04/15 06:03:18;;;;;;;6.00;4.80;;;10.10;46.60;;;;;;5036473;28;20051;-57
2021/04/15 06:05:59;;;;;;;6.88;5.38;;;10.20;46.60;;;;;;5004654;28;20041;-58
2021/04/15 06:08:28;;;;;;;7.13;5.17;;;10.30;46.60;;;;;;5046241;28;20048;-57
2021/04/15 06:11:24;;;;;;;6.87;5.20;;;10.30;46.40;;;;;;5041580;28;20037;-57
2021/04/15 06:13:56;;;;;;;5.93;4.77;;;10.50;46.70;;;;;;5014014;28;20050;-55
2021/04/15 06:16:29;;;;;;;7.70;5.00;;;10.50;46.00;;;;;;5045435;28;20037;-55
2021/04/15 06:19:03;;;;;;;7.57;4.60;;;10.30;46.40;;;;;;5050007;28;20041;-55
2021/04/15 06:21:35;;;;;;;7.80;4.95;;;10.40;46.00;;;;;;5058959;28;20550;-53
2021/04/15 06:24:15;;;;;;;7.47;5.10;;;10.40;46.20;;;;;;5065226;28;20119;-56
2021/04/15 06:26:44;;;;;;;5.80;4.97;;;10.40;46.20;;;;;;5010418;28;20552;-55
2021/04/15 06:29:23;;;;;;;8.50;5.30;;;10.50;46.20;;;;;;5053864;28;20079;-56
2021/04/15 06:31:52;;;;;;;6.77;4.73;;;10.30;46.20;;;;;;5021988;28;20426;-57
2021/04/15 06:34:19;;;;;;;6.23;4.80;;;10.40;46.00;;;;;;5053867;28;20036;-57
2021/04/15 06:36:59;;;;;;;6.73;4.13;;;10.50;46.30;;;;;;5049620;28;20166;-57
2021/04/15 06:39:38;;;;;;;6.20;4.30;;;10.50;45.30;;;;;;5054045;28;20037;-56
2021/04/15 06:42:32;;;;;;;5.40;3.83;;;10.50;45.90;;;;;;5045033;28;20052;-58
2021/04/15 06:45:27;;;;;;;5.70;4.50;;;10.50;45.20;;;;;;5055061;28;20184;-57
2021/04/15 06:48:17;;;;;;;4.30;3.90;;;10.50;45.00;;;;;;5033835;28;20123;-56
2021/04/15 06:50:58;;;;;;;7.27;3.97;;;10.60;44.80;;;;;;4993517;28;20039;-54
2021/04/15 06:53:35;;;;;;;5.07;3.67;;;10.70;44.10;;;;;;5039172;28;20037;-56
2021/04/15 06:56:09;;;;;;;6.57;3.53;;;10.70;43.80;;;;;;5046718;28;20036;-57
2021/04/15 06:58:59;;;;;;;6.40;3.60;;;10.70;44.30;;;;;;5046854;28;20087;-58
2021/04/15 07:04:55;;;;;;;5.03;3.77;;;10.80;44.40;;;;;;5002045;28;20118;-57
2021/04/15 07:07:46;;;;;;;7.95;4.00;;;10.80;44.70;;;;;;5044547;28;20062;-57
2021/04/15 07:10:37;;;;;;;4.33;3.40;;;10.90;44.70;;;;;;5022641;28;20043;-54
2021/04/15 07:13:53;;;;;;;5.70;3.60;;;10.90;44.40;;;;;;5045610;28;20041;-57
2021/04/15 07:16:59;;;;;;;5.23;4.20;;;11.00;44.20;;;;;;4995719;28;20040;-56
2021/04/15 07:19:55;;;;;;;9.23;4.40;;;11.10;44.90;;;;;;5022015;28;20036;-58
2021/04/15 07:22:48;;;;;;;5.60;3.90;;;11.00;44.50;;;;;;5024576;28;20125;-56
2021/04/15 07:25:28;;;;;;;4.60;3.67;;;11.00;44.90;;;;;;5020567;28;20082;-53
2021/04/15 07:28:08;;;;;;;9.07;4.20;;;11.10;45.60;;;;;;5050065;28;20504;-53
2021/04/15 07:30:54;;;;;;;6.67;3.67;;;11.10;44.80;;;;;;5048889;28;20095;-56
2021/04/15 07:33:57;;;;;;;4.77;3.70;;;11.20;43.60;;;;;;5057455;28;20044;-56
2021/04/15 07:36:42;;;;;;;6.37;4.27;;;11.10;43.60;;;;;;5035646;28;20198;-56
2021/04/15 07:39:52;;;;;;;8.83;5.80;;;11.20;43.30;;;;;;5037113;28;20051;-56
2021/04/15 07:42:46;;;;;;;7.93;5.33;;;11.10;43.90;;;;;;5022960;28;20155;-56
2021/04/15 07:45:40;;;;;;;7.07;5.00;;;11.10;43.70;;;;;;5039945;28;20040;-55
2021/04/15 07:48:13;;;;;;;5.53;4.37;;;11.10;44.20;;;;;;5048969;28;20048;-57
2021/04/15 07:54:12;;;;;;;6.20;4.87;;;11.10;46.80;;;;;;5041096;28;20066;-57
2021/04/15 07:57:19;;;;;;;6.63;4.53;;;11.30;47.40;;;;;;5041302;28;20086;-58
2021/04/15 07:59:56;;;;;;;6.97;3.83;;;11.40;46.90;;;;;;5027274;28;20045;-58
2021/04/15 08:02:37;;;;;;;5.50;3.87;;;11.60;47.10;;;;;;5039926;28;20441;-57
2021/04/15 08:05:09;;;;;;;6.33;3.77;;;11.70;46.40;;;;;;5052235;28;20044;-58
2021/04/15 08:07:43;;;;;;;4.47;3.78;;;11.70;45.90;;;;;;5053344;28;20025;-57
2021/04/15 08:10:45;;;;;;;4.97;3.53;;;11.70;45.30;;;;;;5039989;28;20048;-56
2021/04/15 08:13:36;;;;;;;6.93;4.45;;;11.70;46.10;;;;;;5042112;28;20101;-57
2021/04/15 08:16:42;;;;;;;4.47;3.37;;;11.60;45.90;;;;;;5047547;28;20474;-56
2021/04/15 08:19:20;;;;;;;4.47;3.80;;;11.60;45.90;;;;;;5032665;28;20499;-58
2021/04/15 08:22:15;;;;;;;4.90;3.90;;;11.70;46.40;;;;;;5051391;28;20032;-58
2021/04/15 08:24:58;;;;;;;7.27;5.07;;;11.70;46.30;;;;;;5038065;28;20425;-57
2021/04/15 08:27:49;;;;;;;5.80;4.23;;;11.60;46.30;;;;;;5045065;28;20060;-58
2021/04/15 08:30:37;;;;;;;3.47;3.13;;;11.50;46.90;;;;;;5020474;28;20036;-58
2021/04/15 08:33:13;;;;;;;3.73;2.80;;;11.40;47.50;;;;;;5061046;28;20075;-56
2021/04/15 08:36:12;;;;;;;5.77;2.10;;;11.50;47.10;;;;;;5051124;28;20513;-58
2021/04/15 08:39:02;;;;;;;2.05;1.63;;;11.20;47.00;;;;;;5033967;28;20051;-57
2021/04/15 08:41:54;;;;;;;4.67;2.03;;;11.40;45.10;;;;;;5036286;28;20493;-58
2021/04/15 08:44:54;;;;;;;2.93;1.53;;;11.50;47.60;;;;;;5028209;28;20040;-56
2021/04/15 08:47:28;;;;;;;1.80;1.10;;;11.60;46.50;;;;;;5022156;28;20040;-57
2021/04/15 08:50:16;;;;;;;1.55;1.40;;;11.70;46.00;;;;;;5068011;28;20039;-57
2021/04/15 08:53:09;;;;;;;2.93;1.43;;;11.90;45.50;;;;;;5036214;28;20049;-57
2021/04/15 08:55:57;;;;;;;2.63;1.63;;;12.00;45.10;;;;;;5052536;28;20033;-58
2021/04/15 08:58:42;;;;;;;6.07;1.97;;;12.20;45.30;;;;;;5051368;28;20059;-58
2021/04/15 09:01:36;;;;;;;5.47;1.65;;;12.30;42.10;;;;;;5025854;28;20048;-58
2021/04/15 09:04:10;;;;;;;3.55;1.65;;;12.60;42.90;;;;;;5053075;28;20040;-56
2021/04/15 09:06:53;;;;;;;2.30;2.10;;;12.70;41.30;;;;;;5066846;28;20051;-57
2021/04/15 09:09:37;;;;;;;2.75;2.15;;;12.90;40.00;;;;;;5060972;28;20029;-59
2021/04/15 09:12:22;;;;;;;5.65;3.17;;;12.80;40.20;;;;;;5057253;28;20037;-57
2021/04/15 09:15:32;;;;;;;4.00;3.65;;;13.00;38.60;;;;;;5048836;28;20041;-58
2021/04/15 09:18:30;;;;;;;7.25;5.10;;;12.90;39.60;;;;;;5015457;28;20068;-58
2021/04/15 09:21:23;;;;;;;6.88;4.85;;;13.00;39.90;;;;;;5009132;28;20029;-56
2021/04/15 09:24:22;;;;;;;7.30;5.85;;;13.00;39.50;;;;;;4994961;28;20033;-56
2021/04/15 09:27:15;;;;;;;7.10;5.57;;;13.10;39.50;;;;;;5009422;28;20049;-55
2021/04/15 09:29:52;;;;;;;6.60;5.82;;;13.00;40.40;;;;;;5026236;28;20065;-58
2021/04/15 09:32:30;;;;;;;6.50;5.80;;;12.90;41.10;;;;;;5044364;28;20045;-57
2021/04/15 09:35:17;;;;;;;9.65;5.65;;;13.10;40.60;;;;;;5043900;28;20037;-54
2021/04/15 09:38:00;;;;;;;11.80;6.40;;;13.00;40.90;;;;;;5028459;28;20120;-57
2021/04/15 09:40:55;;;;;;;5.22;4.82;;;13.10;41.20;;;;;;5046943;28;20355;-56
2021/04/15 09:43:41;;;;;;;5.68;4.65;;;13.00;40.70;;;;;;5014520;28;20028;-59
2021/04/15 09:46:19;;;;;;;5.47;4.60;;;13.00;39.90;;;;;;5027728;28;20569;-57
2021/04/15 09:48:59;;;;;;;6.72;4.90;;;12.60;41.30;;;;;;5043022;28;20485;-57
2021/04/15 09:51:47;;;;;;;5.93;4.72;;;12.70;40.30;;;;;;5065887;28;20040;-57
2021/04/15 09:54:21;;;;;;;9.20;5.20;;;12.80;40.50;;;;;;5006825;28;20098;-58
2021/04/15 09:57:02;;;;;;;5.97;5.03;;;12.70;40.00;;;;;;5045556;28;20048;-58
2021/04/15 09:59:49;;;;;;;7.32;5.18;;;12.70;40.00;;;;;;5061208;28;20086;-56
2021/04/15 10:02:33;;;;;;;8.73;5.43;;;12.90;39.90;;;;;;5023947;28;20501;-58
2021/04/15 10:05:01;;;;;;;14.77;6.00;;;12.90;39.10;;;;;;5041807;28;20052;-57
2021/04/15 10:07:41;;;;;;;6.72;5.38;;;13.00;40.40;;;;;;5065961;28;20121;-58
2021/04/15 10:10:21;;;;;;;8.15;6.30;;;12.90;42.40;;;;;;5042588;28;20039;-57
2021/04/15 10:13:24;;;;;;;8.50;6.07;;;13.00;43.90;;;;;;5066905;28;20113;-57
2021/04/15 10:15:53;;;;;;;5.25;4.63;;;12.80;43.70;;;;;;4999863;28;20510;-58
2021/04/15 10:18:59;;;;;;;4.53;4.03;;;13.00;42.40;;;;;;5053653;28;20057;-59
2021/04/15 10:21:46;;;;;;;7.57;4.90;;;13.00;41.50;;;;;;5024453;28;20428;-56
2021/04/15 10:24:37;;;;;;;6.73;5.37;;;13.00;40.60;;;;;;5006744;28;20033;-57
2021/04/15 10:27:15;;;;;;;5.75;4.63;;;13.20;39.80;;;;;;5048440;28;20094;-57
2021/04/15 10:30:02;;;;;;;6.00;4.07;;;13.50;38.70;;;;;;5048681;28;20052;-57
2021/04/15 10:33:05;;;;;;;5.28;3.95;;;13.30;40.00;;;;;;5047852;28;20078;-58
2021/04/15 10:35:49;;;;;;;3.45;3.10;;;13.70;40.80;;;;;;5019015;28;20508;-55
2021/04/15 10:38:36;;;;;;;6.28;4.20;;;13.70;43.40;;;;;;5029547;28;20452;-55
2021/04/15 10:41:20;;;;;;;5.38;3.67;;;13.50;46.30;;;;;;5052007;28;20049;-60
2021/04/15 10:44:04;;;;;;;4.35;3.67;;;13.60;45.70;;;;;;4990408;28;20126;-60
2021/04/15 10:47:12;;;;;;;4.25;3.67;;;13.50;49.10;;;;;;5046292;28;20087;-60
2021/04/15 10:50:12;;;;;;;3.58;3.38;;;12.80;51.00;;;;;;4953921;28;20516;-58
2021/04/15 10:52:55;;;;;;;5.30;4.00;;;12.20;53.50;;;;;;5026602;28;20072;-58
2021/04/15 10:55:25;;;;;;;4.30;3.90;;;12.10;54.50;;;;;;5053039;28;20033;-55
2021/04/15 10:57:52;;;;;;;4.60;4.05;;;12.00;54.60;;;;;;5059059;28;20064;-57
2021/04/15 11:00:27;;;;;;;4.38;3.30;;;11.80;55.30;;;;;;5066991;28;20071;-57
2021/04/15 11:03:09;;;;;;;5.20;3.60;;;11.70;56.90;;;;;;5062838;28;20052;-55
2021/04/15 11:06:01;;;;;;;5.25;3.70;;;11.50;56.70;;;;;;5030281;28;20367;-58
2021/04/15 11:08:28;;;;;;;4.80;3.47;;;11.60;58.40;;;;;;5049153;28;20067;-55
2021/04/15 11:11:15;;;;;;;4.47;4.07;;;11.60;56.40;;;;;;5056534;28;20354;-56
2021/04/15 11:13:41;;;;;;;4.60;4.18;;;11.30;57.70;;;;;;5000246;28;20505;-56
2021/04/15 11:16:21;;;;;;;5.47;4.82;;;11.50;57.70;;;;;;5042423;28;20044;-55
2021/04/15 11:18:47;;;;;;;7.05;4.18;;;11.60;58.40;;;;;;5037792;28;20044;-57
2021/04/15 11:21:35;;;;;;;6.78;4.32;;;11.50;56.40;;;;;;5049798;28;20052;-56
2021/04/15 11:24:29;;;;;;;5.35;4.85;;;11.60;59.10;;;;;;5040271;28;20048;-57
2021/04/15 11:27:02;;;;;;;5.25;4.68;;;11.60;59.40;;;;;;5007049;28;20049;-57
2021/04/15 11:29:36;;;;;;;6.82;3.75;;;11.80;57.60;;;;;;5045881;28;20041;-56
2021/04/15 11:32:34;;;;;;;6.20;3.90;;;11.80;57.10;;;;;;5045107;28;20884;-55
2021/04/15 11:35:09;;;;;;;4.72;3.70;;;11.90;57.70;;;;;;5015060;28;20455;-57
2021/04/15 11:37:40;;;;;;;5.75;3.90;;;11.80;56.80;;;;;;5038983;28;20037;-53
2021/04/15 11:40:22;;;;;;;6.30;4.00;;;12.00;56.30;;;;;;5046457;28;20036;-55
2021/04/15 11:42:50;;;;;;;5.03;4.40;;;12.30;56.00;;;;;;5051099;28;20112;-56
2021/04/15 11:45:45;;;;;;;3.83;3.38;;;12.80;54.40;;;;;;5042739;28;20045;-55
2021/04/15 11:48:21;;;;;;;5.55;3.40;;;13.80;51.80;;;;;;4998617;28;20435;-57
2021/04/15 11:50:48;;;;;;;3.60;3.10;;;15.20;47.70;;;;;;5045482;28;20052;-53
2021/04/15 11:53:37;;;;;;;5.07;3.15;;;15.60;46.80;;;;;;5033595;28;20494;-54
2021/04/15 11:56:23;;;;;;;3.28;2.97;;;15.30;46.30;;;;;;5045935;28;20037;-55
2021/04/15 11:58:50;;;;;;;4.70;3.15;;;15.40;47.20;;;;;;4987252;28;20052;-57
2021/04/15 12:01:31;;;;;;;3.33;3.03;;;15.60;44.90;;;;;;5039048;28;20405;-55
2021/04/15 12:04:05;;;;;;;3.15;2.80;;;15.90;44.30;;;;;;5054203;28;20064;-56
2021/04/15 12:06:41;;;;;;;4.53;3.27;;;15.70;44.40;;;;;;5063981;28;20064;-55
2021/04/15 12:09:11;;;;;;;5.13;2.90;;;15.20;44.00;;;;;;5052502;28;20410;-56
2021/04/15 12:12:01;;;;;;;3.70;3.40;;;14.30;46.10;;;;;;5066590;28;20509;-57
2021/04/15 12:14:27;;;;;;;4.82;3.67;;;14.10;46.10;;;;;;5046475;28;20040;-56
2021/04/15 12:17:06;;;;;;;3.70;3.40;;;14.70;46.50;;;;;;5057030;28;20403;-57
2021/04/15 12:19:35;;;;;;;3.90;3.53;;;14.80;45.90;;;;;;5048646;28;20060;-56
2021/04/15 12:22:10;;;;;;;3.25;2.55;;;14.60;45.90;;;;;;5050486;28;20127;-57
2021/04/15 12:24:49;;;;;;;8.00;2.97;;;15.10;44.20;;;;;;5064169;28;20508;-57
2021/04/15 12:27:49;;;;;;;4.15;2.90;;;16.20;42.80;;;;;;5042575;28;20083;-57
2021/04/15 12:30:26;;;;;;;3.10;2.50;;;15.50;41.20;;;;;;5012802;28;20036;-53
2021/04/15 12:33:01;;;;;;;2.92;2.60;;;15.10;42.30;;;;;;5050486;28;20041;-58
2021/04/15 12:35:43;;;;;;;4.30;2.63;;;14.90;42.70;;;;;;5046242;28;20111;-58
2021/04/15 12:38:26;;;;;;;2.83;2.28;;;15.40;40.60;;;;;;5028194;28;20348;-58
2021/04/15 12:40:57;;;;;;;3.97;3.20;;;17.20;39.80;;;;;;5060172;28;20241;-57
2021/04/15 12:43:45;;;;;;;6.57;2.95;;;17.90;41.20;;;;;;5067375;28;20102;-58
2021/04/15 12:46:18;;;;;;;2.20;2.00;;;18.10;37.90;;;;;;4991856;28;20036;-57
2021/04/15 12:49:03;;;;;;;3.42;2.38;;;18.00;37.40;;;;;;5061759;28;20041;-57
2021/04/15 12:51:45;;;;;;;4.20;2.13;;;19.00;36.10;;;;;;5048976;28;20055;-59
2021/04/15 12:54:18;;;;;;;2.15;1.60;;;19.10;33.60;;;;;;5025493;28;20388;-59
2021/04/15 12:56:51;;;;;;;3.03;1.52;;;19.50;34.10;;;;;;5054504;28;20127;-56
2021/04/15 12:59:24;;;;;;;1.85;1.65;;;21.20;31.40;;;;;;5052268;28;20475;-57
2021/04/15 13:01:50;;;;;;;2.33;2.05;;;22.50;28.90;;;;;;5048402;28;20029;-57
2021/04/15 13:04:30;;;;;;;2.15;1.58;;;22.30;29.70;;;;;;5059296;28;20064;-59
2021/04/15 13:07:35;;;;;;;1.92;1.73;;;22.50;28.00;;;;;;5051090;28;20046;-58
2021/04/15 13:10:12;;;;;;;3.45;1.92;;;21.70;30.50;;;;;;4976343;28;20578;-59
2021/04/15 13:12:48;;;;;;;3.63;2.08;;;20.80;28.60;;;;;;5015089;28;20503;-57
2021/04/15 13:15:23;;;;;;;3.58;1.98;;;19.90;29.90;;;;;;5045431;28;20171;-58
2021/04/15 13:17:50;;;;;;;3.20;2.20;;;19.90;30.10;;;;;;5046897;28;20048;-59
2021/04/15 13:20:22;;;;;;;5.28;1.90;;;20.60;31.80;;;;;;5033537;28;20052;-59
2021/04/15 13:23:08;;;;;;;2.58;2.05;;;20.40;29.80;;;;;;5054237;28;20052;-58
2021/04/15 13:25:50;;;;;;;2.13;1.60;;;20.20;29.30;;;;;;5052411;28;20040;-57
2021/04/15 13:28:16;;;;;;;1.65;1.27;;;21.60;49.90;;;;;;5061664;28;20036;-59
2021/04/15 13:30:42;;;;;;;3.13;1.77;;;22.40;49.20;;;;;;5045485;28;20033;-60
2021/04/15 13:33:16;;;;;;;1.95;1.60;;;21.70;28.70;;;;;;5054797;28;20043;-59
2021/04/15 13:36:07;;;;;;;1.83;1.35;;;22.00;28.20;;;;;;5065375;28;20066;-60
2021/04/15 13:38:39;;;;;;;2.22;1.80;;;22.00;28.70;;;;;;5045656;28;20460;-59
2021/04/15 13:41:23;;;;;;;3.42;1.70;;;21.60;28.30;;;;;;5064472;28;20082;-58
2021/04/15 13:43:59;;;;;;;3.83;1.80;;;21.70;25.90;;;;;;5056098;28;20049;-59
2021/04/15 13:46:25;;;;;;;2.17;1.88;;;22.70;26.20;;;;;;5050049;28;20045;-58
2021/04/15 13:49:00;;;;;;;2.55;1.90;;;22.50;26.20;;;;;;5053226;28;20039;-60
2021/04/15 13:51:25;;;;;;;;;;;24.00;22.70;;;;;;5052806;28;20039;-60
2021/04/15 13:54:25;;;;;;;2.70;1.70;;;23.80;23.10;;;;;;5061366;28;19999;-59
2021/04/15 13:56:54;;;;;;;1.98;1.20;;;25.80;23.80;;;;;;4978127;28;20372;-60